KIKK/IKK METAR and TAF weather

Enter ICAO airport designator
Station Type Date Time Source
KIKK METAR 2022/07/03 14:17 UTC NOAA

KIKK 031417Z AUTO 00000KT 10SM CLR 26/15 A3017 RMK AO2


Station Type Date Time Source
KIKK Decoded METAR 2022/07/03 14:17 UTC NOAA

Kankakee, Greater Kankakee Airport, IL, United States (KIKK) 41-04-17N 087-50-47W
Jul 03, 2022 - 10:17 AM EDT / 2022.07.03 1417 UTC
Wind: Calm:0
Visibility: 10 mile(s):0
Sky conditions: clear
Temperature: 78 F (26 C)
Dew Point: 59 F (15 C)
Relative Humidity: 50%
Pressure (altimeter): 30.17 in. Hg (1021 hPa)
ob: KIKK 031417Z AUTO 00000KT 10SM CLR 26/15 A3017 RMK AO2
cycle: 14

Station Type Date Time Source
KIKK TAF UTC NOAA

Error!

Example: see airport list